Time;durP1;ratioP1;P1;durP2;ratioP2;P2;SDS_P1;SDS_P2;PMS_P1;PMS_P2;Temp;Humidity;BMP_temperature;BMP_pressure;BME280_temperature;BME280_humidity;BME280_pressure;Samples;Min_cycle;Max_cycle;Signal;HPM_P1;HPM_P2
2023/05/22 00:01:06;;;;;;;3.87;2.50;;;;;;;;;;6268857;28;20110;-88
2023/05/22 00:04:06;;;;;;;5.73;3.33;;;;;;;;;;6273127;28;20055;-86
2023/05/22 00:07:06;;;;;;;5.57;3.63;;;;;;;;;;6270626;28;20041;-88
2023/05/22 00:10:07;;;;;;;6.10;2.97;;;;;;;;;;6269814;28;20106;-88
2023/05/22 00:13:07;;;;;;;5.30;2.77;;;;;;;;;;6272748;28;20009;-88
2023/05/22 00:16:07;;;;;;;7.07;2.80;;;;;;;;;;6272575;28;20021;-83
2023/05/22 00:19:11;;;;;;;4.27;3.03;;;;;;;;;;6280472;28;20026;-86
2023/05/22 00:22:12;;;;;;;6.30;3.53;;;;;;;;;;6275976;28;20108;-87
2023/05/22 00:25:12;;;;;;;7.00;3.63;;;;;;;;;;6274814;28;20096;-84
2023/05/22 00:28:12;;;;;;;6.97;2.93;;;;;;;;;;6274879;28;20006;-84
2023/05/22 00:31:15;;;;;;;6.77;3.40;;;;;;;;;;6285361;28;20013;-84
2023/05/22 00:34:15;;;;;;;6.03;3.13;;;;;;;;;;6265122;28;20024;-88
2023/05/22 00:37:15;;;;;;;8.60;3.00;;;;;;;;;;6263677;28;20025;-89
2023/05/22 00:40:16;;;;;;;8.40;3.43;;;;;;;;;;6343810;22;20498;-80
2023/05/22 00:43:17;;;;;;;8.73;3.37;;;;;;;;;;6269653;28;20027;-80
2023/05/22 00:46:21;;;;;;;9.95;3.47;;;;;;;;;;6268759;28;20029;-81
2023/05/22 00:49:21;;;;;;;7.07;3.05;;;;;;;;;;6274152;28;20013;-81
2023/05/22 00:52:22;;;;;;;7.27;3.37;;;;;;;;;;6282974;28;20467;-81
2023/05/22 00:55:24;;;;;;;4.75;3.00;;;;;;;;;;6284866;28;20039;-81
2023/05/22 00:58:25;;;;;;;7.45;3.72;;;;;;;;;;6266365;28;20458;-81
2023/05/22 01:01:32;;;;;;;7.00;3.13;;;;;;;;;;6282821;28;20554;-81
2023/05/22 01:04:32;;;;;;;8.85;3.90;;;;;;;;;;6291377;28;20282;-81
2023/05/22 01:07:36;;;;;;;4.03;2.83;;;;;;;;;;6259182;28;20501;-80
2023/05/22 01:10:38;;;;;;;6.75;2.85;;;;;;;;;;6281093;28;20020;-81
2023/05/22 01:13:49;;;;;;;6.45;3.17;;;;;;;;;;6268889;28;20063;-81
2023/05/22 01:17:09;;;;;;;5.72;3.70;;;;;;;;;;6280889;28;20147;-80
2023/05/22 01:20:30;;;;;;;10.20;3.17;;;;;;;;;;6281324;28;20025;-80
2023/05/22 01:23:42;;;;;;;7.30;3.40;;;;;;;;;;6278214;28;20554;-80
2023/05/22 01:27:00;;;;;;;5.68;3.05;;;;;;;;;;6281708;28;20024;-80
2023/05/22 01:30:09;;;;;;;6.32;3.42;;;;;;;;;;6290316;28;20482;-80
2023/05/22 01:33:11;;;;;;;5.25;3.55;;;;;;;;;;6264734;28;20017;-80
2023/05/22 01:36:11;;;;;;;;;;;;;;;;;;6271927;28;20479;-81
2023/05/22 01:39:13;;;;;;;6.18;3.58;;;;;;;;;;6253908;28;19943;-80
2023/05/22 01:42:13;;;;;;;7.97;2.97;;;;;;;;;;6267806;28;20422;-80
2023/05/22 01:45:14;;;;;;;12.10;3.17;;;;;;;;;;6287850;28;20058;-80
2023/05/22 01:48:14;;;;;;;5.97;2.73;;;;;;;;;;6278417;28;20032;-80
2023/05/22 01:51:15;;;;;;;7.30;3.80;;;;;;;;;;6278090;28;20020;-85
2023/05/22 01:54:22;;;;;;;7.23;3.30;;;;;;;;;;6283729;28;20089;-85
2023/05/22 01:57:23;;;;;;;7.13;3.80;;;;;;;;;;6304601;28;20021;-86
2023/05/22 02:00:25;;;;;;;7.70;3.60;;;;;;;;;;6471160;22;20056;-80
2023/05/22 02:03:28;;;;;;;7.80;3.80;;;;;;;;;;6319843;28;20390;-80
2023/05/22 02:06:31;;;;;;;8.60;3.60;;;;;;;;;;6301384;28;20034;-80
2023/05/22 02:09:32;;;;;;;7.45;3.53;;;;;;;;;;6318557;28;20025;-80
2023/05/22 02:12:33;;;;;;;9.07;3.60;;;;;;;;;;6312789;28;20019;-81
2023/05/22 02:15:33;;;;;;;5.97;3.30;;;;;;;;;;6313649;28;20028;-80
2023/05/22 02:18:33;;;;;;;7.30;3.10;;;;;;;;;;6308740;28;20487;-81
2023/05/22 02:21:34;;;;;;;7.20;3.30;;;;;;;;;;6318023;28;20024;-80
2023/05/22 02:24:35;;;;;;;7.43;3.63;;;;;;;;;;6323065;28;20024;-80
2023/05/22 02:27:35;;;;;;;7.60;3.58;;;;;;;;;;6294055;28;20028;-80
2023/05/22 02:30:36;;;;;;;6.87;2.87;;;;;;;;;;6317015;28;20031;-80
2023/05/22 02:33:36;;;;;;;7.77;3.27;;;;;;;;;;6294419;28;20048;-80
2023/05/22 02:36:36;;;;;;;9.27;3.60;;;;;;;;;;6324852;28;20398;-80
2023/05/22 02:39:36;;;;;;;9.00;3.67;;;;;;;;;;6328123;28;20027;-80
2023/05/22 02:42:36;;;;;;;7.63;3.60;;;;;;;;;;6322579;28;20094;-80
2023/05/22 02:45:37;;;;;;;7.23;4.43;;;;;;;;;;6327790;28;20386;-80
2023/05/22 02:48:37;;;;;;;6.87;3.17;;;;;;;;;;6310709;28;20095;-80
2023/05/22 02:51:37;;;;;;;7.27;3.07;;;;;;;;;;6316377;28;20586;-80
2023/05/22 02:54:38;;;;;;;8.07;3.53;;;;;;;;;;6303300;28;20048;-80
2023/05/22 02:57:39;;;;;;;5.72;3.47;;;;;;;;;;6300687;28;20023;-80
2023/05/22 03:00:39;;;;;;;7.57;3.30;;;;;;;;;;6308736;28;20049;-89
2023/05/22 03:03:42;;;;;;;8.57;3.63;;;;;;;;;;6312359;28;20025;-87
2023/05/22 03:06:44;;;;;;;7.07;2.60;;;;;;;;;;6322824;28;20028;-84
2023/05/22 03:09:44;;;;;;;5.45;3.00;;;;;;;;;;6330231;28;20073;-89
2023/05/22 03:12:44;;;;;;;5.73;2.80;;;;;;;;;;6319512;28;20047;-84
2023/05/22 03:15:45;;;;;;;6.70;3.60;;;;;;;;;;6327145;28;20016;-85
2023/05/22 03:18:45;;;;;;;8.67;3.73;;;;;;;;;;6301612;28;20116;-84
2023/05/22 03:21:47;;;;;;;9.27;3.47;;;;;;;;;;6316924;28;20020;-87
2023/05/22 03:24:47;;;;;;;5.40;2.85;;;;;;;;;;6325868;28;20012;-84
2023/05/22 03:27:47;;;;;;;5.43;3.20;;;;;;;;;;6328711;28;20029;-83
2023/05/22 03:30:47;;;;;;;7.13;3.60;;;;;;;;;;6322348;28;20020;-87
2023/05/22 03:33:48;;;;;;;9.37;3.50;;;;;;;;;;6324124;28;20016;-89
2023/05/22 03:36:48;;;;;;;7.10;3.33;;;;;;;;;;6442764;22;20079;-90
2023/05/22 03:39:48;;;;;;;5.53;3.13;;;;;;;;;;6301712;28;20471;-84
2023/05/22 03:42:49;;;;;;;8.10;3.30;;;;;;;;;;6271270;28;20005;-82
2023/05/22 03:45:49;;;;;;;6.00;3.47;;;;;;;;;;6294327;28;20051;-82
2023/05/22 03:48:49;;;;;;;5.80;3.87;;;;;;;;;;6282742;28;20027;-83
2023/05/22 03:51:49;;;;;;;4.90;3.10;;;;;;;;;;6300234;28;20025;-81
2023/05/22 03:54:52;;;;;;;7.50;4.00;;;;;;;;;;6297399;28;20009;-83
2023/05/22 03:57:52;;;;;;;6.47;2.72;;;;;;;;;;6299059;28;20059;-83
2023/05/22 04:00:53;;;;;;;7.33;3.70;;;;;;;;;;6288646;28;20025;-83
2023/05/22 04:03:53;;;;;;;6.68;3.75;;;;;;;;;;6274002;28;20088;-84
2023/05/22 04:06:56;;;;;;;5.90;3.37;;;;;;;;;;6262988;28;20089;-90
2023/05/22 04:09:57;;;;;;;6.93;3.63;;;;;;;;;;6263544;28;20005;-89
2023/05/22 04:12:58;;;;;;;15.60;3.60;;;;;;;;;;6242870;28;20032;-81
2023/05/22 04:15:58;;;;;;;15.03;3.33;;;;;;;;;;6242099;28;20029;-81
2023/05/22 04:19:00;;;;;;;10.57;3.47;;;;;;;;;;6242065;28;20514;-80
2023/05/22 04:25:08;;;;;;;7.20;3.72;;;;;;;;;;6271772;28;20057;-87
2023/05/22 04:28:09;;;;;;;8.50;3.28;;;;;;;;;;6266595;28;20026;-85
2023/05/22 04:31:09;;;;;;;11.73;4.20;;;;;;;;;;6276150;22;20065;-91
2023/05/22 04:34:11;;;;;;;8.43;3.30;;;;;;;;;;6275749;28;20021;-89
2023/05/22 04:37:13;;;;;;;4.63;3.38;;;;;;;;;;6272661;28;20040;-90
2023/05/22 04:40:14;;;;;;;10.80;3.67;;;;;;;;;;6278187;28;20000;-88
2023/05/22 04:43:17;;;;;;;5.57;3.13;;;;;;;;;;6285612;28;20032;-89
2023/05/22 04:46:18;;;;;;;9.25;4.20;;;;;;;;;;6288676;28;20017;-85
2023/05/22 04:49:19;;;;;;;8.10;2.83;;;;;;;;;;6290948;28;20447;-90
2023/05/22 04:52:20;;;;;;;5.07;3.05;;;;;;;;;;6284811;28;20029;-89
2023/05/22 04:55:21;;;;;;;11.50;3.60;;;;;;;;;;6286750;28;20011;-89
2023/05/22 04:58:26;;;;;;;9.00;3.00;;;;;;;;;;6289066;28;20013;-90
2023/05/22 05:01:26;;;;;;;6.70;3.47;;;;;;;;;;6273537;28;20016;-84
2023/05/22 05:04:27;;;;;;;9.00;3.40;;;;;;;;;;6292136;28;20029;-84
2023/05/22 05:07:28;;;;;;;5.40;2.93;;;;;;;;;;6287515;28;20047;-84
2023/05/22 05:10:28;;;;;;;7.28;3.42;;;;;;;;;;6290992;28;20017;-88
2023/05/22 05:13:36;;;;;;;7.75;3.47;;;;;;;;;;6296525;28;20035;-87
2023/05/22 05:16:36;;;;;;;4.90;3.03;;;;;;;;;;6294851;28;20537;-88
2023/05/22 05:19:36;;;;;;;5.00;2.67;;;;;;;;;;6287001;28;20151;-88
2023/05/22 05:22:38;;;;;;;7.17;2.93;;;;;;;;;;6267714;28;20044;-82
2023/05/22 05:25:38;;;;;;;6.47;2.85;;;;;;;;;;6269493;28;20368;-81
2023/05/22 05:28:39;;;;;;;10.73;3.23;;;;;;;;;;6262262;28;20028;-82
2023/05/22 05:31:39;;;;;;;6.00;2.80;;;;;;;;;;6261219;28;20487;-82
2023/05/22 05:34:40;;;;;;;7.07;3.63;;;;;;;;;;6269494;28;20064;-82
2023/05/22 05:37:40;;;;;;;5.67;2.83;;;;;;;;;;6270287;28;20444;-81
2023/05/22 05:40:40;;;;;;;4.83;2.83;;;;;;;;;;6264086;28;20139;-82
2023/05/22 05:43:41;;;;;;;8.07;2.87;;;;;;;;;;6269182;28;20029;-82
2023/05/22 05:46:41;;;;;;;9.87;2.87;;;;;;;;;;6265516;28;20017;-82
2023/05/22 05:49:41;;;;;;;10.33;3.57;;;;;;;;;;6261216;28;20375;-82
2023/05/22 05:52:41;;;;;;;8.73;3.33;;;;;;;;;;6267084;28;20459;-82
2023/05/22 05:55:42;;;;;;;5.67;2.83;;;;;;;;;;6268651;28;20024;-82
2023/05/22 05:58:42;;;;;;;7.00;3.15;;;;;;;;;;6270054;28;20036;-82
2023/05/22 06:01:44;;;;;;;6.00;3.20;;;;;;;;;;6266929;28;20021;-82
2023/05/22 06:04:47;;;;;;;9.43;3.05;;;;;;;;;;6265513;28;20040;-83
2023/05/22 06:07:48;;;;;;;7.70;3.55;;;;;;;;;;6270014;28;20021;-82
2023/05/22 06:10:48;;;;;;;;;;;;;;;;;;6265012;28;20082;-82
2023/05/22 06:13:48;;;;;;;6.40;3.47;;;;;;;;;;6268348;28;19905;-82
2023/05/22 06:16:49;;;;;;;4.40;2.83;;;;;;;;;;6267512;28;20075;-82
2023/05/22 06:19:49;;;;;;;4.90;3.22;;;;;;;;;;6267650;28;20111;-83
2023/05/22 06:22:50;;;;;;;9.00;3.17;;;;;;;;;;6262955;28;20036;-82
2023/05/22 06:25:50;;;;;;;8.18;2.80;;;;;;;;;;6259159;28;20115;-82
2023/05/22 06:28:51;;;;;;;8.60;2.73;;;;;;;;;;6268854;28;20044;-82
2023/05/22 06:31:51;;;;;;;7.40;3.10;;;;;;;;;;6283628;28;20037;-90
2023/05/22 06:34:52;;;;;;;13.87;3.70;;;;;;;;;;6293760;28;20025;-91
2023/05/22 07:50:29;;;;;;;5.20;2.25;;;;;;;;;;7798178;22;20000;31
2023/05/22 07:53:30;;;;;;;4.75;2.22;;;;;;;;;;6255585;28;20058;-82
2023/05/22 07:56:31;;;;;;;5.50;2.08;;;;;;;;;;6245721;28;20559;-82
2023/05/22 07:59:32;;;;;;;;;;;;;;;;;;6238308;28;20010;-82
2023/05/22 08:02:32;;;;;;;5.90;2.75;;;;;;;;;;6236765;28;19913;-82
2023/05/22 08:05:32;;;;;;;8.73;2.53;;;;;;;;;;6216579;28;20109;-82
2023/05/22 08:08:33;;;;;;;;;;;;;;;;;;6233261;28;20909;-82
2023/05/22 08:11:34;;;;;;;5.15;2.47;;;;;;;;;;6218836;28;19909;-81
2023/05/22 08:14:35;;;;;;;6.78;2.60;;;;;;;;;;6219578;28;20017;-82
2023/05/22 08:17:35;;;;;;;;;;;;;;;;;;6220895;28;20030;-82
2023/05/22 08:20:36;;;;;;;7.30;2.50;;;;;;;;;;6227998;28;19909;-82
2023/05/22 08:23:37;;;;;;;3.95;2.15;;;;;;;;;;6226156;28;20018;-83
2023/05/22 08:26:39;;;;;;;;;;;;;;;;;;6222983;28;20415;-82
2023/05/22 08:29:39;;;;;;;;;;;;;;;;;;6223193;28;19916;-82
2023/05/22 08:32:39;;;;;;;5.43;2.60;;;;;;;;;;6224828;28;20303;-82
2023/05/22 08:35:40;;;;;;;6.33;2.87;;;;;;;;;;6222236;28;20014;-82
2023/05/22 08:38:40;;;;;;;;;;;;;;;;;;6222693;28;20022;-83
2023/05/22 08:41:42;;;;;;;2.47;2.20;;;;;;;;;;6221816;28;19910;-82
2023/05/22 08:44:42;;;;;;;4.38;2.60;;;;;;;;;;6222322;28;20045;-82
2023/05/22 08:47:43;;;;;;;6.00;2.30;;;;;;;;;;6221977;28;20068;-82
2023/05/22 08:57:45;;;;;;;7.43;2.42;;;;;;;;;;6945195;22;20048;-90
2023/05/22 09:00:47;;;;;;;5.63;2.60;;;;;;;;;;6276955;28;20033;-91
2023/05/22 09:03:50;;;;;;;8.30;2.37;;;;;;;;;;6275128;28;20221;-90
2023/05/22 09:06:50;;;;;;;5.63;3.08;;;;;;;;;;6271010;28;20569;-90
2023/05/22 09:09:50;;;;;;;5.68;2.38;;;;;;;;;;6297492;28;20027;-89
2023/05/22 09:13:00;;;;;;;8.83;2.70;;;;;;;;;;6297322;28;20024;-91
2023/05/22 09:16:08;;;;;;;7.72;2.65;;;;;;;;;;6278778;28;20077;-92
2023/05/22 09:19:08;;;;;;;8.43;3.42;;;;;;;;;;6277420;28;20032;-91
2023/05/22 09:22:08;;;;;;;5.57;2.73;;;;;;;;;;6279087;28;20025;-91
2023/05/22 09:25:16;;;;;;;3.97;2.67;;;;;;;;;;6269593;28;20034;-91
2023/05/22 09:28:16;;;;;;;6.50;2.53;;;;;;;;;;6276592;28;20024;-91
2023/05/22 09:31:18;;;;;;;7.47;2.60;;;;;;;;;;6292999;28;20023;-91
2023/05/22 09:34:18;;;;;;;4.47;2.67;;;;;;;;;;6275571;28;20028;-91
2023/05/22 09:37:18;;;;;;;5.57;2.93;;;;;;;;;;6275987;28;20020;-91
2023/05/22 09:40:19;;;;;;;4.57;2.80;;;;;;;;;;6273787;28;20486;-92
2023/05/22 09:43:24;;;;;;;5.80;2.57;;;;;;;;;;6278816;28;20720;-91
2023/05/22 09:46:24;;;;;;;4.65;2.72;;;;;;;;;;6278856;28;20058;-91
2023/05/22 09:49:24;;;;;;;5.60;2.90;;;;;;;;;;6294939;28;20440;-91
2023/05/22 09:52:27;;;;;;;5.50;3.00;;;;;;;;;;6293652;28;20043;-91
2023/05/22 09:55:27;;;;;;;11.93;2.58;;;;;;;;;;6277435;28;20084;-91
2023/05/22 09:58:29;;;;;;;5.27;3.10;;;;;;;;;;6298805;28;20098;-91
2023/05/22 10:01:32;;;;;;;5.20;2.65;;;;;;;;;;6276104;28;20273;-90
2023/05/22 10:04:33;;;;;;;4.13;2.47;;;;;;;;;;6277421;28;20055;-91
2023/05/22 10:07:44;;;;;;;5.80;3.03;;;;;;;;;;6274632;28;20073;-91
2023/05/22 10:10:46;;;;;;;6.47;3.00;;;;;;;;;;6269365;28;20026;-90
2023/05/22 10:13:47;;;;;;;6.45;2.70;;;;;;;;;;6273842;28;20055;-90
2023/05/22 10:16:48;;;;;;;7.70;3.28;;;;;;;;;;6276436;28;20023;-90
2023/05/22 10:19:48;;;;;;;5.87;2.77;;;;;;;;;;6291461;28;20391;-90
2023/05/22 10:22:49;;;;;;;5.18;3.22;;;;;;;;;;6290884;28;20104;-90
2023/05/22 10:25:49;;;;;;;9.03;3.60;;;;;;;;;;6277777;28;20021;-90
2023/05/22 10:28:59;;;;;;;6.43;2.83;;;;;;;;;;6277619;28;20548;-90
2023/05/22 10:32:18;;;;;;;10.02;3.65;;;;;;;;;;6278722;28;20051;-90
2023/05/22 10:35:20;;;;;;;5.03;2.70;;;;;;;;;;6267667;28;20029;-90
2023/05/22 10:38:45;;;;;;;7.22;3.08;;;;;;;;;;6277118;28;20111;-90
2023/05/22 10:41:46;;;;;;;6.35;3.08;;;;;;;;;;6289275;28;20093;-90
2023/05/22 10:44:47;;;;;;;4.87;3.10;;;;;;;;;;6292433;28;20044;-90
2023/05/22 10:47:48;;;;;;;5.53;2.83;;;;;;;;;;6288533;28;20016;-90
2023/05/22 10:50:49;;;;;;;7.10;4.10;;;;;;;;;;6276837;28;20021;-90
2023/05/22 10:54:04;;;;;;;6.55;2.92;;;;;;;;;;6277099;28;20029;-90
2023/05/22 10:57:17;;;;;;;3.53;2.30;;;;;;;;;;6273913;28;20043;-90
2023/05/22 11:00:19;;;;;;;6.72;3.03;;;;;;;;;;6288458;28;20033;-90
2023/05/22 11:03:20;;;;;;;3.78;2.50;;;;;;;;;;6277004;28;20039;-90
2023/05/22 11:06:40;;;;;;;6.60;2.70;;;;;;;;;;6277731;28;20024;-90
2023/05/22 11:09:47;;;;;;;6.70;2.97;;;;;;;;;;6276994;28;20372;-90
2023/05/22 11:13:01;;;;;;;4.35;2.92;;;;;;;;;;6296787;28;20020;-90
2023/05/22 11:16:03;;;;;;;7.68;3.15;;;;;;;;;;6290962;28;20135;-90
2023/05/22 11:19:07;;;;;;;6.18;2.65;;;;;;;;;;6301538;28;20025;-91
2023/05/22 11:22:07;;;;;;;5.18;2.92;;;;;;;;;;6295990;28;20072;-90
2023/05/22 11:25:15;;;;;;;5.73;3.10;;;;;;;;;;6321773;28;20032;-90
2023/05/22 11:28:15;;;;;;;6.13;2.40;;;;;;;;;;6324908;28;20016;-90
2023/05/22 11:31:17;;;;;;;5.20;2.90;;;;;;;;;;6304322;28;20013;-90
2023/05/22 11:34:17;;;;;;;4.25;2.83;;;;;;;;;;6324372;28;20111;-90
2023/05/22 11:37:18;;;;;;;7.77;2.87;;;;;;;;;;6303916;28;20001;-90
2023/05/22 11:40:19;;;;;;;10.73;3.35;;;;;;;;;;6305565;28;20112;-89
2023/05/22 11:43:31;;;;;;;4.82;2.40;;;;;;;;;;6307289;28;20031;-90
2023/05/22 11:46:32;;;;;;;4.47;2.80;;;;;;;;;;6286825;28;20024;-90
2023/05/22 11:49:33;;;;;;;5.00;2.77;;;;;;;;;;6299658;28;20023;-89
2023/05/22 11:52:36;;;;;;;6.28;2.60;;;;;;;;;;6310739;28;20063;-90
2023/05/22 11:55:36;;;;;;;6.10;2.63;;;;;;;;;;6310017;28;20016;-90
2023/05/22 11:58:36;;;;;;;6.60;2.73;;;;;;;;;;6291337;28;20072;-90
2023/05/22 12:01:36;;;;;;;6.67;3.17;;;;;;;;;;6305757;28;20482;-90
2023/05/22 12:04:36;;;;;;;5.67;2.87;;;;;;;;;;6304233;28;20032;-89
2023/05/22 12:07:37;;;;;;;6.17;2.60;;;;;;;;;;6305738;28;20028;-90
2023/05/22 12:10:37;;;;;;;6.27;2.53;;;;;;;;;;6290642;28;20012;-90
2023/05/22 12:13:37;;;;;;;3.93;2.33;;;;;;;;;;6290673;28;20046;-89
2023/05/22 12:16:38;;;;;;;7.10;2.70;;;;;;;;;;6307122;28;20024;-89
2023/05/22 12:19:38;;;;;;;4.13;2.80;;;;;;;;;;6295682;28;20693;-90
2023/05/22 12:22:42;;;;;;;6.55;2.28;;;;;;;;;;6292309;28;20028;-89
2023/05/22 12:25:42;;;;;;;8.93;2.63;;;;;;;;;;6283235;28;20036;-89
2023/05/22 12:28:43;;;;;;;5.03;2.97;;;;;;;;;;6291251;28;20013;-89
2023/05/22 12:31:45;;;;;;;6.30;2.83;;;;;;;;;;6291407;28;20024;-88
2023/05/22 12:34:45;;;;;;;4.60;2.90;;;;;;;;;;6274673;28;20291;-89
2023/05/22 12:37:50;;;;;;;6.15;3.33;;;;;;;;;;6273896;28;20066;-89
2023/05/22 12:40:50;;;;;;;7.85;2.90;;;;;;;;;;6292188;28;20028;-89
2023/05/22 12:43:50;;;;;;;3.30;2.43;;;;;;;;;;6282310;28;20025;-89
2023/05/22 12:46:50;;;;;;;5.00;2.93;;;;;;;;;;6284890;28;20016;-89
2023/05/22 12:49:51;;;;;;;7.53;2.73;;;;;;;;;;6288470;28;20301;-89
2023/05/22 12:52:51;;;;;;;7.60;3.07;;;;;;;;;;6280052;28;20482;-89
2023/05/22 12:55:51;;;;;;;4.87;2.90;;;;;;;;;;6292088;28;20470;-89
2023/05/22 12:58:51;;;;;;;7.43;3.40;;;;;;;;;;6266164;28;20136;-89
2023/05/22 13:01:52;;;;;;;6.17;2.90;;;;;;;;;;6287883;28;20024;-89
2023/05/22 13:04:52;;;;;;;8.88;3.30;;;;;;;;;;6289147;28;20123;-89
2023/05/22 13:07:53;;;;;;;4.53;3.50;;;;;;;;;;6295564;28;20032;-89
2023/05/22 13:10:53;;;;;;;5.77;3.07;;;;;;;;;;6294156;28;20549;-89
2023/05/22 13:13:53;;;;;;;3.90;2.63;;;;;;;;;;6273406;28;20039;-89
2023/05/22 13:16:53;;;;;;;9.63;3.73;;;;;;;;;;6286793;28;20035;-89
2023/05/22 13:19:54;;;;;;;6.05;2.95;;;;;;;;;;6295095;28;20036;-89
2023/05/22 13:22:55;;;;;;;7.97;2.70;;;;;;;;;;6273275;28;20024;-89
2023/05/22 13:25:55;;;;;;;5.90;2.50;;;;;;;;;;6290900;28;20104;-89
2023/05/22 13:28:56;;;;;;;5.43;2.83;;;;;;;;;;6277249;28;20029;-89
2023/05/22 13:31:57;;;;;;;2.67;2.20;;;;;;;;;;6275963;28;20553;-89
2023/05/22 13:34:57;;;;;;;;;;;;;;;;;;6289613;28;20033;-89
2023/05/22 13:37:57;;;;;;;3.58;2.40;;;;;;;;;;6271358;28;20003;-89
2023/05/22 13:40:57;;;;;;;;;;;;;;;;;;6277072;28;20016;-89
2023/05/22 13:43:57;;;;;;;10.75;3.33;;;;;;;;;;6276654;28;19908;-89
2023/05/22 13:46:58;;;;;;;3.33;2.63;;;;;;;;;;6277094;28;20017;-89
2023/05/22 13:49:58;;;;;;;6.15;3.00;;;;;;;;;;6296640;28;20021;-89
2023/05/22 13:52:58;;;;;;;5.20;2.70;;;;;;;;;;6295444;28;20094;-89
2023/05/22 13:56:00;;;;;;;4.07;2.37;;;;;;;;;;6277155;28;20032;-89
2023/05/22 13:59:04;;;;;;;4.38;2.70;;;;;;;;;;6277707;28;20040;-89
2023/05/22 14:02:06;;;;;;;5.68;3.20;;;;;;;;;;6280377;28;20386;-89
2023/05/22 14:05:07;;;;;;;6.50;2.47;;;;;;;;;;6292773;28;20020;-89
2023/05/22 14:08:08;;;;;;;4.28;2.50;;;;;;;;;;6294810;28;20024;-89
2023/05/22 14:11:08;;;;;;;6.43;2.80;;;;;;;;;;6271283;28;20029;-89
2023/05/22 14:14:08;;;;;;;;;;;;;;;;;;6291973;28;20294;-89
2023/05/22 14:17:09;;;;;;;6.15;2.63;;;;;;;;;;6280186;28;19904;-90
2023/05/22 14:20:09;;;;;;;;;;;;;;;;;;6294969;28;20067;-89
2023/05/22 14:23:09;;;;;;;7.32;3.03;;;;;;;;;;6277938;28;19905;-88
2023/05/22 14:26:09;;;;;;;;;;;;;;;;;;6277138;28;20482;-90
2023/05/22 14:29:10;;;;;;;5.13;2.93;;;;;;;;;;6294871;28;19915;-90
2023/05/22 14:32:10;;;;;;;;;;;;;;;;;;6293735;28;20263;-90
2023/05/22 14:35:11;;;;;;;5.00;2.72;;;;;;;;;;6275796;28;20317;-90
2023/05/22 14:38:11;;;;;;;;;;;;;;;;;;6295481;28;20029;-89
2023/05/22 14:41:11;;;;;;;7.05;2.58;;;;;;;;;;6288965;28;19918;-90
2023/05/22 14:44:12;;;;;;;;;;;;;;;;;;6293332;28;20024;-90
2023/05/22 14:47:12;;;;;;;5.10;3.00;;;;;;;;;;6276018;28;19973;-89
2023/05/22 14:50:12;;;;;;;3.77;2.43;;;;;;;;;;6288716;28;20021;-89
2023/05/22 14:53:14;;;;;;;8.00;3.00;;;;;;;;;;6275756;28;20279;-90
2023/05/22 14:56:15;;;;;;;4.15;2.25;;;;;;;;;;6293939;28;20070;-89
2023/05/22 14:59:15;;;;;;;7.03;2.72;;;;;;;;;;6290042;28;20076;-89
2023/05/22 15:02:15;;;;;;;4.43;2.22;;;;;;;;;;6293490;28;20054;-90
2023/05/22 15:05:16;;;;;;;5.10;2.70;;;;;;;;;;6286808;28;20447;-89
2023/05/22 15:08:17;;;;;;;4.70;3.10;;;;;;;;;;6293511;28;20504;-89
2023/05/22 15:11:18;;;;;;;6.53;4.28;;;;;;;;;;6273688;28;20440;-90
2023/05/22 15:14:20;;;;;;;4.67;2.13;;;;;;;;;;6291805;28;20064;-89
2023/05/22 15:17:20;;;;;;;9.25;2.80;;;;;;;;;;6294075;28;20012;-89
2023/05/22 15:20:20;;;;;;;7.83;3.13;;;;;;;;;;6272449;28;20016;-89
2023/05/22 15:23:23;;;;;;;7.20;3.07;;;;;;;;;;6290776;28;20024;-89
2023/05/22 15:26:24;;;;;;;9.45;3.08;;;;;;;;;;6307483;28;20123;-89
2023/05/22 15:29:24;;;;;;;5.70;3.13;;;;;;;;;;6292563;28;20031;-89
2023/05/22 15:32:24;;;;;;;7.43;3.67;;;;;;;;;;6276450;28;20023;-89
2023/05/22 15:35:24;;;;;;;4.10;2.80;;;;;;;;;;6290020;28;20017;-89
2023/05/22 15:38:25;;;;;;;5.33;2.83;;;;;;;;;;6276103;28;20383;-89
2023/05/22 15:41:25;;;;;;;5.63;3.13;;;;;;;;;;6293371;28;20024;-88
2023/05/22 15:44:25;;;;;;;9.37;4.07;;;;;;;;;;6292266;28;20025;-89
2023/05/22 15:47:26;;;;;;;9.17;3.40;;;;;;;;;;6276315;28;20052;-89
2023/05/22 15:50:26;;;;;;;5.67;3.37;;;;;;;;;;6274233;28;20062;-89
2023/05/22 15:53:27;;;;;;;6.27;2.90;;;;;;;;;;6274152;28;20025;-89
2023/05/22 15:56:27;;;;;;;6.30;3.10;;;;;;;;;;6272904;28;20028;-89
2023/05/22 15:59:27;;;;;;;3.93;2.87;;;;;;;;;;6286638;28;20724;-89
2023/05/22 16:02:27;;;;;;;12.80;3.97;;;;;;;;;;6273298;28;20049;-89
2023/05/22 16:05:33;;;;;;;4.43;3.10;;;;;;;;;;6276986;28;20070;-89
2023/05/22 16:08:33;;;;;;;5.75;3.47;;;;;;;;;;6291388;28;20086;-89
2023/05/22 16:11:34;;;;;;;4.53;2.87;;;;;;;;;;6276401;28;20023;-89
2023/05/22 16:14:35;;;;;;;5.57;3.35;;;;;;;;;;6273077;28;20477;-89
2023/05/22 16:17:36;;;;;;;5.90;3.15;;;;;;;;;;6285507;28;20032;-89
2023/05/22 16:20:37;;;;;;;7.38;3.63;;;;;;;;;;6274009;28;20390;-89
2023/05/22 16:23:37;;;;;;;5.22;2.92;;;;;;;;;;6292086;28;20016;-89
2023/05/22 16:26:38;;;;;;;4.97;3.97;;;;;;;;;;6273714;28;20028;-89
2023/05/22 16:29:38;;;;;;;6.07;3.80;;;;;;;;;;6291399;28;20027;-89
2023/05/22 16:32:38;;;;;;;7.10;3.17;;;;;;;;;;6290903;28;20025;-89
2023/05/22 16:35:38;;;;;;;4.57;2.80;;;;;;;;;;6272792;28;20071;-89
2023/05/22 16:38:38;;;;;;;7.50;3.53;;;;;;;;;;6273615;28;20021;-89
2023/05/22 16:41:39;;;;;;;6.13;3.33;;;;;;;;;;6274276;28;20024;-89
2023/05/22 16:44:39;;;;;;;7.13;3.43;;;;;;;;;;6290508;28;20074;-89
2023/05/22 16:47:39;;;;;;;6.73;3.60;;;;;;;;;;6290940;28;20056;-89
2023/05/22 16:50:41;;;;;;;9.80;3.90;;;;;;;;;;6293915;28;20059;-89
2023/05/22 16:53:41;;;;;;;5.57;3.60;;;;;;;;;;6278486;28;20024;-89
2023/05/22 16:56:41;;;;;;;8.33;3.73;;;;;;;;;;6272336;28;20060;-89
2023/05/22 16:59:42;;;;;;;9.63;3.83;;;;;;;;;;6296380;28;20017;-89
2023/05/22 17:02:42;;;;;;;6.57;3.33;;;;;;;;;;6276292;28;20016;-89
2023/05/22 17:05:42;;;;;;;7.97;4.27;;;;;;;;;;6291254;28;20611;-89
2023/05/22 17:08:43;;;;;;;7.57;3.93;;;;;;;;;;6274248;28;20112;-89
2023/05/22 17:11:43;;;;;;;7.87;3.07;;;;;;;;;;6277197;28;20540;-89
2023/05/22 17:14:43;;;;;;;7.27;3.70;;;;;;;;;;6289005;28;20127;-89
2023/05/22 17:17:43;;;;;;;6.37;3.07;;;;;;;;;;6277448;28;20012;-89
2023/05/22 17:20:44;;;;;;;7.03;3.63;;;;;;;;;;6292549;28;20091;-89
2023/05/22 17:23:45;;;;;;;8.55;4.03;;;;;;;;;;6277098;28;20016;-89
2023/05/22 17:26:46;;;;;;;8.90;3.47;;;;;;;;;;6277437;28;20387;-89
2023/05/22 17:29:47;;;;;;;7.60;3.80;;;;;;;;;;6277657;28;20024;-89
2023/05/22 17:32:48;;;;;;;11.10;4.17;;;;;;;;;;6276422;28;20496;-89
2023/05/22 17:35:49;;;;;;;8.85;3.60;;;;;;;;;;6276724;28;20813;-89
2023/05/22 17:38:50;;;;;;;8.05;4.10;;;;;;;;;;6277392;28;20008;-89
2023/05/22 17:41:50;;;;;;;10.57;3.70;;;;;;;;;;6274737;28;20136;-89
2023/05/22 17:44:50;;;;;;;9.10;3.73;;;;;;;;;;6295217;28;20665;-89
2023/05/22 17:47:50;;;;;;;7.10;4.33;;;;;;;;;;6289911;28;20017;-89
2023/05/22 17:50:51;;;;;;;11.13;3.90;;;;;;;;;;6294183;28;20031;-89
2023/05/22 17:53:54;;;;;;;7.00;4.10;;;;;;;;;;6275235;28;20036;-89
2023/05/22 17:56:55;;;;;;;7.32;4.63;;;;;;;;;;6289669;28;20572;-87
2023/05/22 17:59:55;;;;;;;9.40;4.83;;;;;;;;;;6275746;28;20099;-87
2023/05/22 18:02:55;;;;;;;10.00;5.87;;;;;;;;;;6273885;28;20016;-87
2023/05/22 18:05:55;;;;;;;12.13;5.17;;;;;;;;;;6295044;28;20035;-89
2023/05/22 18:08:56;;;;;;;11.77;4.73;;;;;;;;;;6295107;28;20020;-89
2023/05/22 18:11:57;;;;;;;8.63;4.80;;;;;;;;;;6289703;28;20105;-88
2023/05/22 18:14:58;;;;;;;10.07;4.75;;;;;;;;;;6289846;28;20115;-89
2023/05/22 18:17:58;;;;;;;9.67;4.67;;;;;;;;;;6294873;28;20069;-89
2023/05/22 18:21:00;;;;;;;7.93;3.53;;;;;;;;;;6295392;28;20020;-89
2023/05/22 18:24:01;;;;;;;12.85;4.40;;;;;;;;;;6276112;28;20013;-89
2023/05/22 18:27:01;;;;;;;12.17;4.07;;;;;;;;;;6273281;28;20521;-89
2023/05/22 18:30:02;;;;;;;8.27;4.20;;;;;;;;;;6293037;28;20038;-89
2023/05/22 18:33:02;;;;;;;8.23;4.33;;;;;;;;;;6269054;28;20021;-89
2023/05/22 18:36:03;;;;;;;9.07;5.00;;;;;;;;;;6269971;28;20476;-89
2023/05/22 18:39:03;;;;;;;10.17;5.33;;;;;;;;;;6291390;28;20020;-89
2023/05/22 18:42:04;;;;;;;10.37;6.13;;;;;;;;;;6286048;28;20506;-89
2023/05/22 18:45:05;;;;;;;10.40;6.20;;;;;;;;;;6292687;28;20021;-89
2023/05/22 18:48:05;;;;;;;11.60;6.53;;;;;;;;;;6292422;28;20028;-90
2023/05/22 18:51:07;;;;;;;14.27;6.23;;;;;;;;;;6287287;28;20100;-89
2023/05/22 18:54:07;;;;;;;9.60;5.77;;;;;;;;;;6275922;28;20020;-89
2023/05/22 18:57:07;;;;;;;11.13;5.93;;;;;;;;;;6299167;28;20097;-92
2023/05/22 19:00:09;;;;;;;9.97;6.33;;;;;;;;;;6278500;28;20099;-92
2023/05/22 19:03:09;;;;;;;12.98;6.97;;;;;;;;;;6277680;28;20013;-89
2023/05/22 19:06:11;;;;;;;18.30;7.07;;;;;;;;;;6287033;28;20505;-89
2023/05/22 19:09:12;;;;;;;17.30;6.40;;;;;;;;;;6287524;28;20029;-88
2023/05/22 19:12:12;;;;;;;14.73;7.43;;;;;;;;;;6271426;28;20055;-88
2023/05/22 19:15:12;;;;;;;13.90;7.37;;;;;;;;;;6273922;28;20020;-89
2023/05/22 19:18:13;;;;;;;11.40;6.17;;;;;;;;;;6288297;28;20082;-88
2023/05/22 19:21:13;;;;;;;10.13;6.70;;;;;;;;;;6275790;28;20031;-89
2023/05/22 19:24:13;;;;;;;11.70;7.17;;;;;;;;;;6294044;28;20024;-89
2023/05/22 19:27:13;;;;;;;11.70;6.07;;;;;;;;;;6276982;28;20017;-89
2023/05/22 19:30:15;;;;;;;11.03;6.73;;;;;;;;;;6277889;28;20016;-89
2023/05/22 19:33:16;;;;;;;15.45;6.85;;;;;;;;;;6287616;28;20452;-88